Flight Track Log - Related Links

Times and Time Zones

All times are in EDT time to prevent confusion due to time zone crossing. See the N859JG flight status page for this flight to view local times or setup timezone preferences in your user account.

Time Position Orientation Groundspeed Altitude Reporting Facility
EDT Latitude Longitude Course Direction KTS MPH feet Rate Location/Type
Tue 10:59:44 AM 39.3333 -76.4333 180° South 100 115 800  Level Potomac TRACON
Tue 11:00:44 AM 39.3000 -76.4333 180° South 144 166 1,600 895 Climbing Potomac TRACON
Tue 11:01:38 AM 39.2667 -76.4333 180° South 150 173 2,500 737 Climbing Potomac TRACON
Tue 11:02:38 AM 39.2500 -76.4000 123° Southeast 135 155 3,000 750 Climbing Potomac TRACON
Tue 11:03:38 AM 39.2333 -76.3500 113° Southeast 128 147 4,000 895 Climbing Potomac TRACON
Tue 11:04:32 AM 39.2333 -76.3167 90° East 132 152 4,700 526 Climbing Potomac TRACON
Tue 11:05:32 AM 39.2333 -76.2667 90° East 157 181 5,000 150 Climbing Potomac TRACON
Tue 11:06:32 AM 39.2500 -76.2000 72° East 173 199 5,000  Level Potomac TRACON
Tue 11:08:31 AM 39.3000 -76.1000 57° Northeast 189 217 5,000  Level Philadelphia TRACON
Tue 11:09:26 AM 39.3333 -76.0500 49° Northeast 181 208 5,000  Level Philadelphia TRACON
Tue 11:10:37 AM 39.3667 -76.0000 49° Northeast 181 208 5,000  Level Philadelphia TRACON
Tue 11:11:38 AM 39.3833 -75.9333 72° East 168 193 5,000  Level Philadelphia TRACON
Tue 11:12:38 AM 39.4000 -75.8833 67° East 177 204 5,000  Level Philadelphia TRACON
Tue 11:13:32 AM 39.4167 -75.8333 67° East 173 199 5,000  Level Philadelphia TRACON
Tue 11:14:38 AM 39.4333 -75.7667 72° East 172 198 5,000  Level Philadelphia TRACON
Tue 11:15:26 AM 39.4500 -75.7167 67° East 173 199 5,000  Level Philadelphia TRACON
Tue 11:16:26 AM 39.4667 -75.6667 67° East 174 200 5,000  Level Philadelphia TRACON
Tue 11:17:38 AM 39.4833 -75.5833 75° East 176 203 5,000  Level Philadelphia TRACON
Tue 11:18:26 AM 39.5000 -75.5500 57° Northeast 176 203 5,000  Level Philadelphia TRACON
Tue 11:19:38 AM 39.5333 -75.4667 63° Northeast 173 199 5,000  Level Philadelphia TRACON
Tue 11:20:32 AM 39.5333 -75.4167 90° East 172 198 5,000  Level Philadelphia TRACON
Tue 11:21:32 AM 39.5500 -75.3667 67° East 169 194 5,000  Level Philadelphia TRACON
Tue 11:22:32 AM 39.5667 -75.3000 72° East 170 196 5,000  Level Philadelphia TRACON
Tue 11:23:32 AM 39.5833 -75.2500 67° East 169 194 5,000  Level Philadelphia TRACON
Tue 11:24:32 AM 39.6000 -75.2000 67° East 169 194 5,000  Level Philadelphia TRACON
Tue 11:25:32 AM 39.6167 -75.1333 72° East 166 191 5,000  Level Philadelphia TRACON
Tue 11:26:38 AM 39.6333 -75.0667 72° East 167 192 5,000  Level Philadelphia TRACON
Tue 11:27:38 AM 39.6500 -75.0167 67° East 168 193 5,000  Level Philadelphia TRACON
Tue 11:28:50 AM 39.6667 -74.9500 72° East 169 194 5,000  Level Philadelphia TRACON
Tue 11:30:00 AM 39.7082 -74.9293 21° North  Level FlightAware Approximate
Tue 11:37:00 AM 39.7981 -74.5969 79° East  Level FlightAware Approximate
Tue 11:38:00 AM 39.8000 -74.5475 90° East  Level FlightAware Approximate
Tue 11:39:00 AM 39.8000 -74.4979 90° East  Level FlightAware Approximate
Tue 11:40:00 AM 39.8007 -74.4486 57° Northeast  Level FlightAware Approximate
Tue 11:41:00 AM 39.8215 -74.4070 57° Northeast  Level FlightAware Approximate
Tue 11:42:00 AM 39.8464 -74.3703 38° Northeast  Level FlightAware Approximate
Tue 11:43:00 AM 39.8755 -74.3383 46° Northeast  Level FlightAware Approximate
Tue 11:44:00 AM 39.9021 -74.3028 46° Northeast  Level FlightAware Approximate
Tue 11:45:00 AM 39.9167 -74.2833 46° Northeast  Level FlightAware Approximate
Tue 11:46:00 AM 39.9275 -74.2924 46° Northeast  Level Estimated
Tue 11:47:00 AM 39.9275 -74.2924 46° Northeast  Level Estimated
Tue 11:48:00 AM 39.9275 -74.2924 46° Northeast  Level Estimated

Login

Don't have an account? Register now (free) for customized features, flight alerts, and more!